Time;durP1;ratioP1;P1;durP2;ratioP2;P2;SDS_P1;SDS_P2;PMS_P1;PMS_P2;Temp;Humidity;BMP_temperature;BMP_pressure;BME280_temperature;BME280_humidity;BME280_pressure;Samples;Min_cycle;Max_cycle;Signal;HPM_P1;HPM_P2
2021/12/05 00:19:33;;;;;;;;;;;;;;;13.63;66.54;99326.41;1053004;28;673;-60
2021/12/05 00:21:40;;;;;;;;;;;;;;;13.62;66.18;99335.44;1053046;28;845;-59
2021/12/05 00:22:35;;;;;;;;;;;;;;;13.62;66.74;99326.56;1049310;28;913;-59
2021/12/05 00:23:32;;;;;;;;;;;;;;;13.62;66.37;99337.28;1048437;28;646;-59
2021/12/05 00:24:23;;;;;;;;;;;;;;;13.62;66.84;99331.91;1053916;28;762;-60
2021/12/05 00:25:14;;;;;;;;;;;;;;;13.59;66.26;99325.06;1052222;28;736;-59
2021/12/05 00:26:06;;;;;;;;;;;;;;;13.61;66.35;99332.94;1052531;28;652;-60
2021/12/05 00:27:00;;;;;;;;;;;;;;;13.61;66.96;99332.94;1052294;28;625;-59
2021/12/05 00:32:47;;;;;;;;;;;;;;;13.61;65.95;99332.94;1039927;28;1127;-59
2021/12/05 00:33:56;;;;;;;;;;;;;;;13.62;66.51;99329.25;1052650;28;701;-59
2021/12/05 00:38:21;;;;;;;;;;;;;;;13.59;66.76;99332.25;1053620;28;1897;-59
2021/12/05 00:39:33;;;;;;;;;;;;;;;13.59;66.03;99334.94;1053510;28;941;-59
2021/12/05 00:41:50;;;;;;;;;;;;;;;13.60;66.78;99333.94;1053720;28;754;-59
2021/12/05 00:44:33;;;;;;;;;;;;;;;13.58;66.92;99330.56;1053676;28;728;-60
2021/12/05 00:45:37;;;;;;;;;;;;;;;13.59;66.88;99325.06;1053529;28;930;-59
2021/12/05 00:50:00;;;;;;;;;;;;;;;13.57;66.08;99329.72;1057268;28;854;-59
2021/12/05 00:51:13;;;;;;;;;;;;;;;13.57;66.65;99323.53;1057077;28;633;-60
2021/12/05 00:57:26;;;;;;;;;;;;;;;13.54;66.70;99317.50;1050535;28;634;-60
2021/12/05 01:01:16;;;;;;;;;;;;;;;13.54;66.70;99325.53;1041282;28;653;-62
2021/12/05 01:02:30;;;;;;;;;;;;;;;13.52;66.70;99332.88;1049974;28;857;-60
2021/12/05 01:06:55;;;;;;;;;;;;;;;13.53;66.76;99333.72;1049759;28;852;-61
2021/12/05 01:08:56;;;;;;;;;;;;;;;13.53;66.15;99336.38;1049395;28;724;-61
2021/12/05 01:15:06;;;;;;;;;;;;;;;13.53;65.92;99331.03;1043268;28;863;-62
2021/12/05 01:15:57;;;;;;;;;;;;;;;13.52;65.91;99337.38;1041571;28;827;-62
2021/12/05 01:16:47;;;;;;;;;;;;;;;13.52;65.90;99332.88;1043343;28;978;-62
2021/12/05 01:17:43;;;;;;;;;;;;;;;13.52;66.24;99343.56;1043246;28;1922;-62
2021/12/05 01:18:34;;;;;;;;;;;;;;;13.52;66.19;99343.56;1042713;28;739;-62
2021/12/05 01:19:26;;;;;;;;;;;;;;;13.52;66.44;99340.06;1042766;28;689;-62
2021/12/05 01:20:17;;;;;;;;;;;;;;;13.51;66.58;99336.53;1042792;28;633;-61
2021/12/05 01:21:08;;;;;;;;;;;;;;;13.52;65.88;99345.41;1042835;28;699;-62
2021/12/05 01:21:58;;;;;;;;;;;;;;;13.51;66.76;99333.03;1042864;28;622;-61
2021/12/05 01:22:57;;;;;;;;;;;;;;;13.49;66.05;99341.22;1041893;28;949;-61
2021/12/05 01:23:59;;;;;;;;;;;;;;;13.51;66.68;99336.53;1042713;28;681;-61
2021/12/05 01:26:08;;;;;;;;;;;;;;;13.51;66.61;99341.06;1041482;28;678;-62
2021/12/05 01:31:27;;;;;;;;;;;;;;;13.49;66.70;99346.56;1042087;28;910;-62
2021/12/05 01:33:43;;;;;;;;;;;;;;;13.49;66.55;99343.88;1038534;28;872;-62
2021/12/05 01:34:54;;;;;;;;;;;;;;;13.50;66.44;99342.03;1039198;28;618;-61
2021/12/05 01:38:05;;;;;;;;;;;;;;;13.50;66.56;99347.41;1041899;28;1886;-62
2021/12/05 01:53:03;;;;;;;;;;;;;;;13.47;66.09;99343.19;1041922;28;1378;-60
2021/12/05 01:54:19;;;;;;;;;;;;;;;13.48;66.69;99338.69;1043186;28;660;-61
2021/12/05 01:57:30;;;;;;;;;;;;;;;13.47;65.72;99343.19;1042093;28;692;-60
2021/12/05 02:11:25;;;;;;;;;;;;;;;13.45;65.88;99339.81;1045966;28;792;-62
2021/12/05 02:32:25;;;;;;;;;;;;;;;13.41;65.96;99321.59;1050257;28;716;-62
2021/12/05 02:34:24;;;;;;;;;;;;;;;13.42;65.99;99332.13;1050192;28;692;-63
2021/12/05 02:35:26;;;;;;;;;;;;;;;13.42;65.74;99325.94;1048997;28;675;-62
2021/12/05 02:38:49;;;;;;;;;;;;;;;13.42;66.07;99321.44;1050167;28;768;-61
2021/12/05 02:41:38;;;;;;;;;;;;;;;13.41;65.84;99325.09;1049982;28;681;-61
2021/12/05 02:42:33;;;;;;;;;;;;;;;13.41;66.34;99329.59;1049480;28;710;-61
2021/12/05 02:43:28;;;;;;;;;;;;;;;13.41;66.39;99319.75;1049111;28;751;-61
2021/12/05 02:44:23;;;;;;;;;;;;;;;13.39;66.91;99319.06;1049566;28;831;-61
2021/12/05 02:45:14;;;;;;;;;;;;;;;13.40;65.97;99320.75;1049637;28;689;-61
2021/12/05 02:46:05;;;;;;;;;;;;;;;13.39;66.30;99319.06;1049527;28;849;-60
2021/12/05 02:47:00;;;;;;;;;;;;;;;13.40;66.28;99319.91;1045490;28;609;-60
2021/12/05 02:47:52;;;;;;;;;;;;;;;13.40;66.04;99317.22;1045763;28;827;-60
2021/12/05 02:48:43;;;;;;;;;;;;;;;13.41;66.65;99321.59;1046039;28;676;-60
2021/12/05 02:49:34;;;;;;;;;;;;;;;13.40;66.32;99325.25;1045933;28;907;-60
2021/12/05 02:50:24;;;;;;;;;;;;;;;13.40;66.13;99325.25;1045889;28;935;-60
2021/12/05 02:51:15;;;;;;;;;;;;;;;13.39;66.74;99321.72;1045959;28;767;-59
2021/12/05 02:52:06;;;;;;;;;;;;;;;13.40;65.84;99325.25;1045948;28;777;-60
2021/12/05 02:53:02;;;;;;;;;;;;;;;13.39;66.06;99319.06;1045888;28;727;-59
2021/12/05 02:54:03;;;;;;;;;;;;;;;13.40;65.97;99319.91;1045890;28;653;-59
2021/12/05 02:54:54;;;;;;;;;;;;;;;13.39;66.69;99318.22;1045933;28;773;-59
2021/12/05 02:55:44;;;;;;;;;;;;;;;13.40;66.02;99318.06;1045977;28;657;-59
2021/12/05 02:56:40;;;;;;;;;;;;;;;13.41;66.02;99316.22;1045463;28;736;-59
2021/12/05 02:58:54;;;;;;;;;;;;;;;13.39;66.42;99316.38;1049882;28;689;-59
2021/12/05 02:59:50;;;;;;;;;;;;;;;13.40;66.33;99319.91;1048822;28;746;-59
2021/12/05 03:00:46;;;;;;;;;;;;;;;13.38;66.37;99317.38;1048881;28;642;-58
2021/12/05 03:01:42;;;;;;;;;;;;;;;13.39;66.86;99318.22;1048839;28;668;-58
2021/12/05 03:02:39;;;;;;;;;;;;;;;13.38;66.06;99319.22;1048891;28;665;-58
2021/12/05 03:03:31;;;;;;;;;;;;;;;13.38;66.40;99322.72;1048859;28;706;-58
2021/12/05 03:04:24;;;;;;;;;;;;;;;13.38;66.60;99320.06;1048907;28;1252;-58
2021/12/05 03:05:19;;;;;;;;;;;;;;;13.38;65.80;99321.88;1048812;28;858;-58
2021/12/05 03:06:16;;;;;;;;;;;;;;;13.38;66.01;99325.41;1048890;28;654;-59
2021/12/05 03:07:08;;;;;;;;;;;;;;;13.39;65.79;99323.56;1049533;28;846;-59
2021/12/05 03:08:01;;;;;;;;;;;;;;;13.37;66.03;99314.84;1049024;28;942;-59
2021/12/05 03:08:52;;;;;;;;;;;;;;;13.37;66.37;99326.41;1048822;28;630;-59
2021/12/05 03:09:42;;;;;;;;;;;;;;;13.37;66.39;99325.56;1048825;28;681;-59
2021/12/05 03:10:32;;;;;;;;;;;;;;;13.37;66.55;99325.56;1048943;28;758;-60
2021/12/05 03:11:23;;;;;;;;;;;;;;;13.36;66.00;99319.38;1048938;28;861;-61
2021/12/05 03:12:17;;;;;;;;;;;;;;;13.37;66.40;99329.06;1048773;28;680;-61
2021/12/05 03:13:08;;;;;;;;;;;;;;;13.38;66.74;99330.75;1048882;28;669;-61
2021/12/05 03:13:58;;;;;;;;;;;;;;;13.37;66.71;99323.72;1048766;28;688;-61
2021/12/05 03:14:48;;;;;;;;;;;;;;;13.37;66.20;99329.06;1048788;28;614;-61
2021/12/05 03:15:39;;;;;;;;;;;;;;;13.38;66.69;99332.59;1048852;28;861;-61
2021/12/05 03:16:29;;;;;;;;;;;;;;;13.37;66.39;99325.56;1048801;28;607;-61
2021/12/05 03:17:20;;;;;;;;;;;;;;;13.38;66.71;99329.91;1048866;28;1630;-60
2021/12/05 03:18:10;;;;;;;;;;;;;;;13.37;66.92;99329.06;1049389;28;944;-61
2021/12/05 03:19:01;;;;;;;;;;;;;;;13.38;66.11;99337.94;1049472;28;727;-61
2021/12/05 03:19:51;;;;;;;;;;;;;;;13.38;66.11;99333.44;1048828;28;790;-61
2021/12/05 03:20:41;;;;;;;;;;;;;;;13.38;66.32;99330.75;1048738;28;602;-62
2021/12/05 03:21:32;;;;;;;;;;;;;;;13.37;66.67;99331.75;1048941;28;800;-62
2021/12/05 03:22:22;;;;;;;;;;;;;;;13.38;66.89;99330.75;1048840;28;614;-61
2021/12/05 03:23:13;;;;;;;;;;;;;;;13.37;66.97;99330.91;1049534;28;614;-61
2021/12/05 03:24:03;;;;;;;;;;;;;;;13.37;66.68;99336.25;1049459;28;828;-60
2021/12/05 03:24:53;;;;;;;;;;;;;;;13.39;66.18;99339.63;1048637;28;941;-61
2021/12/05 03:25:44;;;;;;;;;;;;;;;13.37;66.95;99331.75;1048778;28;2116;-60
2021/12/05 03:26:34;;;;;;;;;;;;;;;13.37;66.25;99339.78;1048672;28;758;-60
2021/12/05 03:27:25;;;;;;;;;;;;;;;13.36;66.51;99343.44;1048873;28;682;-60
2021/12/05 03:28:15;;;;;;;;;;;;;;;13.36;66.75;99340.78;1049503;28;850;-60
2021/12/05 03:29:05;;;;;;;;;;;;;;;13.36;66.81;99334.56;1049437;28;784;-60
2021/12/05 03:29:56;;;;;;;;;;;;;;;13.35;66.40;99339.09;1048893;28;751;-61
2021/12/05 03:30:46;;;;;;;;;;;;;;;13.37;66.76;99346.97;1048163;28;650;-60
2021/12/05 03:31:37;;;;;;;;;;;;;;;13.35;66.39;99347.13;1048835;28;723;-61
2021/12/05 03:32:27;;;;;;;;;;;;;;;13.35;66.86;99344.44;1048095;28;729;-61
2021/12/05 03:33:18;;;;;;;;;;;;;;;13.35;66.97;99343.59;1049447;28;626;-61
2021/12/05 03:34:08;;;;;;;;;;;;;;;13.35;66.18;99344.44;1049328;28;805;-61
2021/12/05 03:34:58;;;;;;;;;;;;;;;13.35;65.98;99338.25;1049228;28;1012;-61
2021/12/05 03:35:49;;;;;;;;;;;;;;;13.36;66.10;99347.94;1048851;28;677;-61
2021/12/05 03:36:39;;;;;;;;;;;;;;;13.35;66.07;99349.78;1048551;28;767;-60
2021/12/05 03:37:30;;;;;;;;;;;;;;;13.34;66.74;99348.09;1048753;28;1698;-60
2021/12/05 03:38:20;;;;;;;;;;;;;;;13.34;66.82;99348.09;1044797;28;812;-60
2021/12/05 03:39:11;;;;;;;;;;;;;;;13.35;66.52;99352.47;1045436;28;739;-60
2021/12/05 03:40:01;;;;;;;;;;;;;;;13.33;67.03;99351.78;1048897;28;1933;-60
2021/12/05 03:40:51;;;;;;;;;;;;;;;13.34;67.07;99348.09;1048455;28;851;-60
2021/12/05 03:41:42;;;;;;;;;;;;;;;13.34;67.05;99347.25;1048786;28;689;-60
2021/12/05 03:42:32;;;;;;;;;;;;;;;13.34;66.99;99348.09;1048607;28;976;-60
2021/12/05 03:43:23;;;;;;;;;;;;;;;13.35;66.36;99348.94;1048845;28;586;-60
2021/12/05 03:44:13;;;;;;;;;;;;;;;13.33;66.36;99342.91;1048948;28;708;-60
2021/12/05 03:45:03;;;;;;;;;;;;;;;13.34;67.23;99344.59;1048653;28;634;-60
2021/12/05 03:45:54;;;;;;;;;;;;;;;13.34;66.17;99348.09;1048823;28;701;-60
2021/12/05 03:46:44;;;;;;;;;;;;;;;13.35;66.79;99346.28;1048532;28;1638;-60
2021/12/05 03:47:36;;;;;;;;;;;;;;;13.34;67.00;99353.47;1049334;28;669;-60
2021/12/05 03:48:27;;;;;;;;;;;;;;;13.34;66.64;99344.59;1050007;28;695;-60
2021/12/05 03:49:17;;;;;;;;;;;;;;;13.34;66.86;99356.13;1049945;28;992;-61
2021/12/05 03:50:07;;;;;;;;;;;;;;;13.33;66.71;99349.09;1049373;28;637;-61
2021/12/05 03:50:58;;;;;;;;;;;;;;;13.33;66.38;99349.09;1049241;28;772;-61
2021/12/05 03:51:48;;;;;;;;;;;;;;;13.33;67.16;99345.56;1049233;28;676;-61
2021/12/05 03:52:39;;;;;;;;;;;;;;;13.33;66.37;99351.78;1045732;28;626;-61
2021/12/05 03:53:29;;;;;;;;;;;;;;;13.34;66.11;99348.09;1045755;28;677;-60
2021/12/05 03:54:19;;;;;;;;;;;;;;;13.32;66.71;99344.75;1045894;28;689;-61
2021/12/05 03:55:10;;;;;;;;;;;;;;;13.33;66.14;99345.56;1045712;28;851;-61
2021/12/05 03:56:04;;;;;;;;;;;;;;;13.33;66.24;99346.41;1045809;28;692;-61
2021/12/05 03:56:54;;;;;;;;;;;;;;;13.33;66.54;99346.41;1045813;28;684;-61
2021/12/05 03:57:44;;;;;;;;;;;;;;;13.33;67.04;99346.41;1045587;28;1963;-61
2021/12/05 03:58:35;;;;;;;;;;;;;;;13.32;66.14;99344.75;1045785;28;843;-61
2021/12/05 03:59:28;;;;;;;;;;;;;;;13.32;67.03;99347.41;1045790;28;930;-61
2021/12/05 04:00:18;;;;;;;;;;;;;;;13.32;66.68;99352.75;1041653;28;716;-61
2021/12/05 04:01:09;;;;;;;;;;;;;;;13.31;66.89;99353.75;1046169;28;680;-62
2021/12/05 04:01:59;;;;;;;;;;;;;;;13.32;66.63;99352.75;1042791;28;652;-60
2021/12/05 04:02:49;;;;;;;;;;;;;;;13.31;66.08;99348.41;1046243;28;617;-61
2021/12/05 04:03:40;;;;;;;;;;;;;;;13.32;67.10;99344.75;1048879;28;660;-61
2021/12/05 04:04:30;;;;;;;;;;;;;;;13.32;66.61;99349.25;1048991;28;637;-61
2021/12/05 04:05:21;;;;;;;;;;;;;;;13.33;66.29;99351.78;1044878;28;724;-61
2021/12/05 04:06:11;;;;;;;;;;;;;;;13.32;66.27;99349.25;1045860;28;648;-60
2021/12/05 04:07:01;;;;;;;;;;;;;;;13.31;66.70;99348.41;1045887;28;1802;-60
2021/12/05 04:07:52;;;;;;;;;;;;;;;13.31;67.12;99353.75;1045675;28;1037;-60
2021/12/05 04:08:42;;;;;;;;;;;;;;;13.32;67.13;99351.91;1046563;28;673;-60
2021/12/05 04:09:33;;;;;;;;;;;;;;;13.31;66.25;99353.75;1045341;28;783;-60
2021/12/05 04:10:26;;;;;;;;;;;;;;;13.31;67.05;99351.09;1046506;28;682;-60
2021/12/05 04:11:17;;;;;;;;;;;;;;;13.30;66.50;99352.06;1045475;28;834;-61
2021/12/05 04:12:09;;;;;;;;;;;;;;;13.32;66.15;99350.09;1042937;28;1035;-60
2021/12/05 04:12:59;;;;;;;;;;;;;;;13.32;66.07;99351.91;1042499;28;713;-60
2021/12/05 04:13:50;;;;;;;;;;;;;;;13.31;66.53;99352.91;1044665;28;757;-60
2021/12/05 04:14:40;;;;;;;;;;;;;;;13.31;66.22;99351.09;1045578;28;633;-60
2021/12/05 04:15:30;;;;;;;;;;;;;;;13.30;66.27;99357.44;1046599;28;669;-60
2021/12/05 04:16:21;;;;;;;;;;;;;;;13.31;66.86;99347.56;1045957;28;801;-60
2021/12/05 04:17:11;;;;;;;;;;;;;;;13.29;66.96;99350.38;1046693;28;706;-60
2021/12/05 04:18:02;;;;;;;;;;;;;;;13.29;66.02;99355.75;1045349;28;1906;-60
2021/12/05 04:18:52;;;;;;;;;;;;;;;13.29;66.30;99353.06;1046053;28;626;-59
2021/12/05 04:19:43;;;;;;;;;;;;;;;13.30;66.60;99357.44;1045933;28;646;-60
2021/12/05 04:20:33;;;;;;;;;;;;;;;13.30;65.89;99356.59;1045870;28;867;-60
2021/12/05 04:21:23;;;;;;;;;;;;;;;13.29;66.53;99352.22;1046565;28;642;-60
2021/12/05 04:22:14;;;;;;;;;;;;;;;13.29;67.02;99355.75;1047048;28;1820;-59
2021/12/05 04:23:04;;;;;;;;;;;;;;;13.30;66.19;99352.06;1050150;28;740;-60
2021/12/05 04:23:55;;;;;;;;;;;;;;;13.30;66.04;99353.91;1050124;28;622;-60
2021/12/05 04:24:46;;;;;;;;;;;;;;;13.29;66.42;99355.75;1050064;28;833;-60
2021/12/05 04:25:37;;;;;;;;;;;;;;;13.30;66.11;99356.59;1050033;28;673;-60
2021/12/05 04:26:28;;;;;;;;;;;;;;;13.29;66.48;99354.91;1050077;28;875;-59
2021/12/05 04:27:18;;;;;;;;;;;;;;;13.28;66.75;99354.06;1050155;28;708;-60
2021/12/05 04:28:12;;;;;;;;;;;;;;;13.29;66.93;99350.38;1050062;28;707;-59
2021/12/05 04:29:03;;;;;;;;;;;;;;;13.28;66.64;99355.91;1050096;28;633;-60
2021/12/05 04:29:53;;;;;;;;;;;;;;;13.28;66.61;99351.38;1050062;28;630;-60
2021/12/05 04:30:43;;;;;;;;;;;;;;;13.28;66.86;99354.06;1049799;28;1847;-60
2021/12/05 04:31:34;;;;;;;;;;;;;;;13.29;65.90;99349.56;1050136;28;656;-60
2021/12/05 04:32:24;;;;;;;;;;;;;;;13.27;66.46;99352.38;1050126;28;645;-60
2021/12/05 04:33:15;;;;;;;;;;;;;;;13.28;66.58;99353.22;1050064;28;625;-59
2021/12/05 04:34:05;;;;;;;;;;;;;;;13.28;66.22;99345.19;1050168;28;700;-60
2021/12/05 04:34:56;;;;;;;;;;;;;;;13.28;66.35;99347.88;1050051;28;900;-60
2021/12/05 04:35:46;;;;;;;;;;;;;;;13.28;65.93;99338.00;1050025;28;622;-60
2021/12/05 04:36:36;;;;;;;;;;;;;;;13.28;66.02;99347.88;1049995;28;647;-61
2021/12/05 04:37:27;;;;;;;;;;;;;;;13.28;65.86;99338.00;1050019;28;770;-61
2021/12/05 04:38:17;;;;;;;;;;;;;;;13.27;66.57;99346.19;1050084;28;625;-61
2021/12/05 04:39:08;;;;;;;;;;;;;;;13.27;66.78;99344.34;1049926;28;671;-61
2021/12/05 04:39:58;;;;;;;;;;;;;;;13.27;66.56;99341.66;1050058;28;794;-59
2021/12/05 04:40:48;;;;;;;;;;;;;;;13.26;66.38;99342.66;1049871;28;689;-59
2021/12/05 04:41:39;;;;;;;;;;;;;;;13.26;65.84;99337.31;1049554;28;732;-60
2021/12/05 04:42:29;;;;;;;;;;;;;;;13.26;66.13;99345.34;1049421;28;1712;-60
2021/12/05 04:43:20;;;;;;;;;;;;;;;13.26;66.71;99336.47;1049926;28;888;-60
2021/12/05 04:44:10;;;;;;;;;;;;;;;13.26;65.89;99345.34;1050092;28;697;-60
2021/12/05 04:45:01;;;;;;;;;;;;;;;13.26;66.40;99340.00;1049968;28;665;-60
2021/12/05 04:45:51;;;;;;;;;;;;;;;13.26;66.51;99345.34;1050366;28;673;-60
2021/12/05 04:46:41;;;;;;;;;;;;;;;13.25;66.66;99343.69;1049868;28;1339;-60
2021/12/05 04:47:32;;;;;;;;;;;;;;;13.26;66.76;99349.84;1049766;28;899;-59
2021/12/05 04:48:22;;;;;;;;;;;;;;;13.24;66.21;99350.03;1051234;28;704;-60
2021/12/05 04:49:13;;;;;;;;;;;;;;;13.24;66.06;99351.88;1050004;28;834;-60
2021/12/05 04:50:03;;;;;;;;;;;;;;;13.25;65.85;99348.19;1049977;28;654;-60
2021/12/05 04:50:53;;;;;;;;;;;;;;;13.24;66.68;99352.72;1049810;28;735;-60
2021/12/05 04:51:44;;;;;;;;;;;;;;;13.24;66.14;99357.22;1049793;28;1022;-61
2021/12/05 04:52:34;;;;;;;;;;;;;;;13.25;65.72;99358.91;1049879;28;696;-61
2021/12/05 04:53:27;;;;;;;;;;;;;;;13.24;66.14;99358.06;1049932;28;946;-61
2021/12/05 04:54:17;;;;;;;;;;;;;;;13.24;65.72;99352.72;1045545;28;619;-61
2021/12/05 04:55:08;;;;;;;;;;;;;;;13.24;66.10;99352.72;1047465;28;661;-61
2021/12/05 04:55:58;;;;;;;;;;;;;;;13.24;65.85;99349.19;1050652;28;777;-61
2021/12/05 04:56:49;;;;;;;;;;;;;;;13.24;65.87;99357.22;1049812;28;1040;-61
2021/12/05 04:57:39;;;;;;;;;;;;;;;13.23;66.61;99361.72;1049775;28;1902;-60
2021/12/05 04:58:30;;;;;;;;;;;;;;;13.24;65.79;99358.06;1049871;28;690;-59
2021/12/05 04:59:23;;;;;;;;;;;;;;;13.23;65.84;99355.53;1049978;28;642;-59
2021/12/05 05:00:13;;;;;;;;;;;;;;;13.23;65.64;99361.72;1049970;28;732;-59
2021/12/05 05:01:04;;;;;;;;;;;;;;;13.23;66.02;99355.53;1049912;28;709;-59
2021/12/05 05:01:57;;;;;;;;;;;;;;;13.23;66.16;99355.53;1049936;28;859;-60
2021/12/05 05:02:47;;;;;;;;;;;;;;;13.22;66.22;99352.03;1046244;28;689;-59
2021/12/05 05:03:37;;;;;;;;;;;;;;;13.23;66.02;99352.84;1045837;28;696;-59
2021/12/05 05:04:29;;;;;;;;;;;;;;;13.23;65.74;99353.69;1045823;28;802;-59
2021/12/05 05:05:20;;;;;;;;;;;;;;;13.23;66.53;99356.38;1046347;28;618;-59
2021/12/05 05:06:15;;;;;;;;;;;;;;;13.23;65.81;99358.22;1045781;28;911;-59
2021/12/05 05:07:06;;;;;;;;;;;;;;;13.23;65.87;99360.88;1046378;28;1999;-59
2021/12/05 05:07:57;;;;;;;;;;;;;;;13.22;66.37;99357.38;1045704;28;833;-59
2021/12/05 05:08:47;;;;;;;;;;;;;;;13.22;65.87;99364.56;1046832;28;668;-59
2021/12/05 05:09:37;;;;;;;;;;;;;;;13.22;66.45;99365.38;1045738;28;801;-59
2021/12/05 05:10:28;;;;;;;;;;;;;;;13.23;66.23;99360.88;1046231;28;954;-59
2021/12/05 05:11:18;;;;;;;;;;;;;;;13.22;65.93;99362.72;1046425;28;625;-59
2021/12/05 05:12:09;;;;;;;;;;;;;;;13.20;66.47;99362.03;1046397;28;920;-59
2021/12/05 05:12:59;;;;;;;;;;;;;;;13.22;65.96;99370.75;1046349;28;818;-59
2021/12/05 05:13:50;;;;;;;;;;;;;;;13.22;66.42;99365.38;1046319;28;681;-59
2021/12/05 05:14:40;;;;;;;;;;;;;;;13.22;66.24;99375.25;1046192;28;968;-59
2021/12/05 05:15:31;;;;;;;;;;;;;;;13.22;66.05;99378.78;1046352;28;688;-59
2021/12/05 05:16:24;;;;;;;;;;;;;;;13.20;65.80;99373.56;1046839;28;859;-59
2021/12/05 05:17:15;;;;;;;;;;;;;;;13.21;66.09;99379.75;1046958;28;704;-59
2021/12/05 05:18:06;;;;;;;;;;;;;;;13.20;66.44;99372.72;1046252;28;1914;-59
2021/12/05 05:18:59;;;;;;;;;;;;;;;13.21;65.72;99385.09;1046821;28;859;-60
2021/12/05 05:19:58;;;;;;;;;;;;;;;13.19;65.62;99377.22;1046541;28;626;-60
2021/12/05 05:28:52;;;;;;;;;;;;;;;13.19;66.42;99397.78;1046320;28;720;-60
2021/12/05 05:43:12;;;;;;;;;;;;;;;13.23;66.45;99412.56;1050301;28;946;-61
2021/12/05 05:46:14;;;;;;;;;;;;;;;13.30;66.17;99418.97;1050349;28;767;-61
2021/12/05 05:47:10;;;;;;;;;;;;;;;13.33;66.11;99417.81;1049092;28;1886;-62
2021/12/05 05:49:13;;;;;;;;;;;;;;;13.38;66.09;99412.84;1049763;28;1063;-62
2021/12/05 05:50:03;;;;;;;;;;;;;;;13.41;65.45;99416.06;1049026;28;899;-62
2021/12/05 05:50:54;;;;;;;;;;;;;;;13.45;66.11;99413.91;1055402;28;699;-61
2021/12/05 05:51:44;;;;;;;;;;;;;;;13.47;66.17;99407.41;1054284;28;775;-61
2021/12/05 05:52:35;;;;;;;;;;;;;;;13.50;66.33;99411.63;1050393;28;679;-61
2021/12/05 05:53:25;;;;;;;;;;;;;;;13.54;65.70;99413.84;1049891;28;729;-61
2021/12/05 05:54:17;;;;;;;;;;;;;;;13.58;65.57;99410.88;1049086;28;724;-61
2021/12/05 05:55:07;;;;;;;;;;;;;;;13.61;65.73;99423.97;1050220;28;696;-61
2021/12/05 05:55:58;;;;;;;;;;;;;;;13.61;65.98;99413.25;1049796;28;849;-61
2021/12/05 05:56:54;;;;;;;;;;;;;;;13.63;65.41;99417.44;1049652;28;727;-61
2021/12/05 05:57:56;;;;;;;;;;;;;;;13.63;65.77;99413.91;1046052;28;1902;-61
2021/12/05 05:58:55;;;;;;;;;;;;;;;13.68;66.14;99423.16;1045467;28;652;-60
2021/12/05 05:59:57;;;;;;;;;;;;;;;13.71;65.71;99424.69;1045376;28;1784;-60
2021/12/05 06:03:50;;;;;;;;;;;;;;;13.77;66.13;99429.44;1045587;28;563;-60
2021/12/05 06:04:41;;;;;;;;;;;;;;;13.78;65.78;99429.28;1044821;28;876;-61
2021/12/05 06:05:31;;;;;;;;;;;;;;;13.78;66.20;99433.81;1045615;28;724;-61
2021/12/05 06:06:22;;;;;;;;;;;;;;;13.76;65.42;99427.75;1044901;28;615;-61
2021/12/05 06:07:15;;;;;;;;;;;;;;;13.76;66.15;99425.94;1045017;28;637;-61
2021/12/05 06:08:05;;;;;;;;;;;;;;;13.79;66.16;99441.66;1045464;28;819;-61
2021/12/05 06:08:56;;;;;;;;;;;;;;;13.80;65.55;99438.00;1045454;28;682;-60
2021/12/05 06:09:46;;;;;;;;;;;;;;;13.81;66.25;99436.16;1044976;28;665;-61
2021/12/05 06:10:36;;;;;;;;;;;;;;;13.82;65.55;99437.84;1045267;28;835;-61
2021/12/05 06:11:27;;;;;;;;;;;;;;;13.81;65.87;99438.81;1045462;28;841;-61
2021/12/05 06:12:17;;;;;;;;;;;;;;;13.83;65.66;99447.56;1045632;28;803;-61
2021/12/05 06:13:08;;;;;;;;;;;;;;;13.81;66.00;99438.81;1045588;28;776;-61
2021/12/05 06:13:58;;;;;;;;;;;;;;;13.83;65.64;99439.53;1045426;28;658;-61
2021/12/05 06:14:49;;;;;;;;;;;;;;;13.84;66.26;99443.88;1045226;28;738;-61
2021/12/05 06:15:39;;;;;;;;;;;;;;;13.83;66.10;99444.88;1045976;28;648;-60
2021/12/05 06:16:30;;;;;;;;;;;;;;;13.84;65.86;99449.22;1045583;28;908;-61
2021/12/05 06:17:20;;;;;;;;;;;;;;;13.83;65.50;99440.38;1051088;28;1976;-62
2021/12/05 06:18:11;;;;;;;;;;;;;;;13.83;66.19;99450.22;1054183;28;734;-62
2021/12/05 06:19:01;;;;;;;;;;;;;;;13.82;66.04;99448.53;1049879;28;815;-62
2021/12/05 06:19:53;;;;;;;;;;;;;;;13.83;65.50;99453.75;1045512;28;768;-62
2021/12/05 06:20:44;;;;;;;;;;;;;;;13.85;66.29;99453.59;1045977;28;630;-62
2021/12/05 06:21:34;;;;;;;;;;;;;;;13.84;65.47;99451.91;1044883;28;829;-62
2021/12/05 06:22:24;;;;;;;;;;;;;;;13.82;65.42;99449.38;1046081;28;688;-62
2021/12/05 06:23:15;;;;;;;;;;;;;;;13.84;66.36;99454.59;1049302;28;942;-62
2021/12/05 06:24:05;;;;;;;;;;;;;;;13.84;65.62;99455.44;1050452;28;641;-62
2021/12/05 06:24:56;;;;;;;;;;;;;;;13.85;65.84;99453.59;1046617;28;667;-62
2021/12/05 06:25:48;;;;;;;;;;;;;;;13.86;65.70;99455.28;1046002;28;669;-63
2021/12/05 06:26:40;;;;;;;;;;;;;;;13.84;65.99;99452.75;1046012;28;701;-62
2021/12/05 06:27:31;;;;;;;;;;;;;;;13.87;65.45;99456.97;1045905;28;1008;-63
2021/12/05 06:28:34;;;;;;;;;;;;;;;13.86;65.98;99456.13;1046130;28;732;-59
2021/12/05 06:29:27;;;;;;;;;;;;;;;13.86;65.35;99457.97;1045974;28;692;-60
2021/12/05 06:30:30;;;;;;;;;;;;;;;13.86;65.47;99460.63;1046106;28;818;-63
2021/12/05 06:32:38;;;;;;;;;;;;;;;13.88;65.29;99462.16;1046049;28;705;-60
2021/12/05 06:37:30;;;;;;;;;;;;;;;13.91;64.84;99463.69;1046005;28;1400;-60
2021/12/05 06:39:23;;;;;;;;;;;;;;;13.95;64.46;99469.59;1042007;28;1561;-60
2021/12/05 06:42:20;;;;;;;;;;;;;;;13.96;65.16;99472.13;1045671;28;757;-60
2021/12/05 06:46:00;;;;;;;;;;;;;;;13.96;64.46;99474.81;1047810;28;1087;-62
2021/12/05 06:46:36;;;;;;;;;;;;;;;13.96;65.41;99479.31;1048731;28;1196;-62
2021/12/05 06:47:28;;;;;;;;;;;;;;;13.95;65.33;99478.47;1047715;28;1248;-63
2021/12/05 06:48:18;;;;;;;;;;;;;;;13.95;65.39;99486.50;1048558;28;1248;-63
2021/12/05 06:49:08;;;;;;;;;;;;;;;13.96;65.71;99479.31;1049644;28;1709;-61
2021/12/05 06:50:00;;;;;;;;;;;;;;;13.94;65.55;99486.66;1048536;28;1549;-63
2021/12/05 06:50:50;;;;;;;;;;;;;;;13.93;65.58;99479.63;1047347;28;1498;-62
2021/12/05 06:51:40;;;;;;;;;;;;;;;13.92;65.54;99484.13;1048234;28;1539;-61
2021/12/05 06:52:31;;;;;;;;;;;;;;;13.94;65.93;99484.81;1049755;28;1787;-62
2021/12/05 06:53:21;;;;;;;;;;;;;;;13.94;65.84;99479.47;1048487;28;1498;-62
2021/12/05 06:54:12;;;;;;;;;;;;;;;13.93;65.69;99485.81;1047737;28;1376;-62
2021/12/05 06:55:02;;;;;;;;;;;;;;;13.93;66.43;99483.13;1048366;28;1323;-61
2021/12/05 06:55:52;;;;;;;;;;;;;;;13.95;66.06;99483.84;1049322;28;1507;-60
2021/12/05 06:56:43;;;;;;;;;;;;;;;13.95;66.08;99485.66;1049667;28;1367;-61
2021/12/05 06:57:33;;;;;;;;;;;;;;;13.94;65.92;99490.19;1049893;28;1497;-61
2021/12/05 06:58:24;;;;;;;;;;;;;;;13.94;65.85;99482.16;1049800;28;1513;-61
2021/12/05 06:59:14;;;;;;;;;;;;;;;13.95;65.88;99486.50;1049927;28;1395;-61
2021/12/05 07:00:06;;;;;;;;;;;;;;;13.96;65.75;99493.56;1049201;28;1544;-61
2021/12/05 07:00:56;;;;;;;;;;;;;;;13.95;66.33;99486.50;1049265;28;1581;-62
2021/12/05 07:01:47;;;;;;;;;;;;;;;13.96;66.08;99490.03;1046039;28;1545;-61
2021/12/05 07:02:37;;;;;;;;;;;;;;;13.97;66.12;99487.19;1046355;28;1470;-62
2021/12/05 07:03:27;;;;;;;;;;;;;;;13.99;65.99;99493.22;1047885;28;1576;-62
2021/12/05 07:04:43;;;;;;;;;;;;;;;13.98;65.45;99496.03;1047776;28;1314;-61
2021/12/05 07:06:12;;;;;;;;;;;;;;;13.99;65.96;99492.38;1046457;28;1762;-62
2021/12/05 07:06:43;;;;;;;;;;;;;;;14.01;65.80;99495.75;1045486;28;1518;-62
2021/12/05 07:07:36;;;;;;;;;;;;;;;14.00;65.80;99500.25;1049227;28;1497;-61
2021/12/05 07:08:31;;;;;;;;;;;;;;;14.00;66.10;99496.72;1046791;28;1616;-59
2021/12/05 07:09:22;;;;;;;;;;;;;;;14.01;65.62;99499.25;1046208;28;1469;-61
2021/12/05 07:10:15;;;;;;;;;;;;;;;14.01;65.78;99496.59;1046174;28;1528;-61
2021/12/05 07:21:06;;;;;;;;;;;;;;;14.03;65.92;99504.47;1038878;28;1526;-61
2021/12/05 07:22:03;;;;;;;;;;;;;;;14.01;65.27;99504.63;1043331;28;1373;-60
2021/12/05 07:23:19;;;;;;;;;;;;;;;13.98;65.59;99510.28;1045420;28;1555;-62
2021/12/05 07:25:12;;;;;;;;;;;;;;;13.96;66.11;99504.25;1047416;28;1616;-62
2021/12/05 07:26:11;;;;;;;;;;;;;;;13.94;65.77;99505.41;1049285;28;1533;-62
2021/12/05 07:40:33;;;;;;;;;;;;;;;13.97;65.09;99524.69;1045899;28;1614;-61
2021/12/05 07:41:48;;;;;;;;;;;;;;;13.96;65.45;99531.03;1045500;28;1632;-61